Time;durP1;ratioP1;P1;durP2;ratioP2;P2;SDS_P1;SDS_P2;PMS_P1;PMS_P2;Temp;Humidity;BMP_temperature;BMP_pressure;BME280_temperature;BME280_humidity;BME280_pressure;Samples;Min_cycle;Max_cycle;Signal;HPM_P1;HPM_P2
2023/01/16 00:01:59;;;;;;;0.38;0.38;;;5.70;89.80;;;;;;5098456;28;20481;-74
2023/01/16 00:04:26;;;;;;;2.13;0.45;;;5.70;89.80;;;;;;5134053;28;20043;-77
2023/01/16 00:06:51;;;;;;;1.10;0.40;;;5.60;89.80;;;;;;5115478;28;20414;-74
2023/01/16 00:09:18;;;;;;;0.55;0.43;;;5.60;89.90;;;;;;5115392;28;20039;-74
2023/01/16 00:11:43;;;;;;;0.60;0.40;;;5.60;90.00;;;;;;5115291;28;20039;-74
2023/01/16 00:14:09;;;;;;;0.40;0.30;;;5.60;90.00;;;;;;5098113;28;20037;-74
2023/01/16 00:16:35;;;;;;;0.98;0.30;;;5.60;90.00;;;;;;5133644;28;20027;-77
2023/01/16 00:19:01;;;;;;;0.32;0.32;;;5.60;90.00;;;;;;5115874;28;20092;-76
2023/01/16 00:21:26;;;;;;;0.40;0.40;;;5.60;90.10;;;;;;5098383;28;20047;-76
2023/01/16 00:23:55;;;;;;;0.90;0.45;;;5.60;90.10;;;;;;5133388;28;20043;-77
2023/01/16 00:26:21;;;;;;;0.32;0.32;;;5.50;90.10;;;;;;5115021;28;20039;-76
2023/01/16 00:28:47;;;;;;;0.60;0.50;;;5.60;90.20;;;;;;5114977;28;20050;-76
2023/01/16 00:31:12;;;;;;;1.38;0.63;;;5.50;90.20;;;;;;5133969;28;20031;-76
2023/01/16 00:33:38;;;;;;;0.57;0.55;;;5.60;90.20;;;;;;5133834;28;20039;-76
2023/01/16 00:36:04;;;;;;;1.05;0.77;;;5.50;90.20;;;;;;5114946;28;20126;-76
2023/01/16 00:38:31;;;;;;;1.00;0.60;;;5.50;90.20;;;;;;5081237;28;20176;-76
2023/01/16 00:40:56;;;;;;;1.02;0.93;;;5.50;90.20;;;;;;5132903;28;20047;-76
2023/01/16 00:43:22;;;;;;;2.30;1.10;;;5.50;90.20;;;;;;5133568;28;20130;-76
2023/01/16 00:45:49;;;;;;;1.00;0.90;;;5.50;90.20;;;;;;5114785;28;20069;-76
2023/01/16 00:48:14;;;;;;;1.48;1.10;;;5.40;90.20;;;;;;5114906;28;20103;-76
2023/01/16 00:50:40;;;;;;;1.42;1.00;;;5.50;90.30;;;;;;5114574;28;20436;-76
2023/01/16 00:53:05;;;;;;;1.30;1.15;;;5.50;90.30;;;;;;5114512;28;20035;-76
2023/01/16 00:55:35;;;;;;;3.15;1.25;;;5.40;90.30;;;;;;5133100;28;20061;-77
2023/01/16 00:58:00;;;;;;;2.30;1.33;;;5.40;90.30;;;;;;5114880;28;20056;-76
2023/01/16 01:00:26;;;;;;;1.45;1.30;;;5.50;90.30;;;;;;5132811;28;20047;-76
2023/01/16 01:02:52;;;;;;;1.95;1.33;;;5.40;90.30;;;;;;5132513;28;20031;-76
2023/01/16 01:05:17;;;;;;;2.03;1.27;;;5.40;90.40;;;;;;5133169;28;20419;-76
2023/01/16 01:07:43;;;;;;;2.70;1.60;;;5.40;90.40;;;;;;5132857;28;20035;-77
2023/01/16 01:10:09;;;;;;;2.28;1.60;;;5.30;90.40;;;;;;5096082;28;20130;-76
2023/01/16 01:12:35;;;;;;;2.05;1.60;;;5.20;90.40;;;;;;5096996;28;20084;-76
2023/01/16 01:15:01;;;;;;;1.90;1.40;;;5.30;90.40;;;;;;5132384;28;20117;-76
2023/01/16 01:17:27;;;;;;;2.17;1.40;;;5.30;90.40;;;;;;5114059;28;20035;-76
2023/01/16 01:19:52;;;;;;;1.42;1.20;;;5.20;90.40;;;;;;5114017;28;20059;-76
2023/01/16 01:22:18;;;;;;;1.80;1.30;;;5.30;90.50;;;;;;5111982;28;20051;-76
2023/01/16 01:24:48;;;;;;;1.52;1.10;;;5.20;90.40;;;;;;5113976;28;20058;-76
2023/01/16 01:27:14;;;;;;;1.20;1.10;;;5.20;90.50;;;;;;5080300;28;20063;-76
2023/01/16 01:29:40;;;;;;;0.98;0.90;;;5.20;90.80;;;;;;5132613;28;20047;-76
2023/01/16 01:32:05;;;;;;;1.20;0.90;;;5.10;90.60;;;;;;5113874;28;20111;-76
2023/01/16 01:34:33;;;;;;;0.93;0.80;;;5.10;90.60;;;;;;5113800;28;20088;-76
2023/01/16 01:37:01;;;;;;;1.75;1.10;;;5.10;90.60;;;;;;5132128;28;20039;-76
2023/01/16 01:39:27;;;;;;;1.48;0.90;;;5.10;90.70;;;;;;5132114;28;20050;-76
2023/01/16 01:42:42;;;;;;;1.23;0.90;;;5.10;90.70;;;;;;5114277;28;20395;-76
2023/01/16 01:44:56;;;;;;;0.55;0.55;;;5.10;90.70;;;;;;5131803;28;20406;-76
2023/01/16 01:47:34;;;;;;;1.20;0.93;;;5.10;90.70;;;;;;5114123;28;20070;-76
2023/01/16 01:50:05;;;;;;;2.25;0.80;;;5.10;90.70;;;;;;5113523;28;20471;-76
2023/01/16 01:52:32;;;;;;;1.33;0.80;;;5.10;90.70;;;;;;5133182;27;20047;-76
2023/01/16 01:55:04;;;;;;;0.70;0.70;;;5.20;90.70;;;;;;5099051;28;20060;-76
2023/01/16 01:57:38;;;;;;;1.00;0.80;;;5.10;90.70;;;;;;5116237;28;20035;-76
2023/01/16 02:00:09;;;;;;;0.90;0.85;;;5.20;90.70;;;;;;5116885;28;20496;-76
2023/01/16 02:02:39;;;;;;;1.63;1.20;;;5.20;90.60;;;;;;5117126;28;20470;-76
2023/01/16 02:05:08;;;;;;;1.25;0.90;;;5.10;90.60;;;;;;5135304;28;20050;-76
2023/01/16 02:07:34;;;;;;;2.33;0.98;;;5.10;90.60;;;;;;5135216;28;20099;-76
2023/01/16 02:10:19;;;;;;;2.05;0.90;;;5.10;90.60;;;;;;5116713;28;20062;-76
2023/01/16 02:12:45;;;;;;;1.38;0.80;;;5.10;90.60;;;;;;5135322;28;20039;-76
2023/01/16 02:15:11;;;;;;;1.60;0.50;;;5.10;90.60;;;;;;5117394;28;20046;-76
2023/01/16 02:20:35;;;;;;;0.93;0.70;;;5.20;90.60;;;;;;5134833;28;20028;-76
2023/01/16 02:23:34;;;;;;;2.25;0.70;;;5.20;90.60;;;;;;5099609;28;20054;-76
2023/01/16 02:26:38;;;;;;;0.88;0.70;;;5.20;90.60;;;;;;5134919;28;20379;-76
2023/01/16 02:29:28;;;;;;;0.85;0.55;;;5.10;90.60;;;;;;5119644;28;20039;-76
2023/01/16 02:32:28;;;;;;;1.27;0.55;;;5.10;90.60;;;;;;5134663;28;20074;-76
2023/01/16 02:35:18;;;;;;;0.95;0.60;;;5.00;90.60;;;;;;5102270;28;20046;-76
2023/01/16 02:37:54;;;;;;;0.82;0.50;;;5.00;90.70;;;;;;5117209;28;20050;-76
2023/01/16 02:40:45;;;;;;;0.30;0.30;;;4.90;90.70;;;;;;5115663;28;20126;-76
2023/01/16 02:43:28;;;;;;;1.50;0.50;;;4.80;90.80;;;;;;5116569;28;20398;-76
2023/01/16 02:46:18;;;;;;;0.63;0.40;;;4.90;90.90;;;;;;5134860;28;20414;-76
2023/01/16 02:49:22;;;;;;;0.30;0.28;;;4.70;90.90;;;;;;5134849;28;20071;-76
2023/01/16 02:52:01;;;;;;;0.32;0.30;;;4.60;91.00;;;;;;5122839;28;20374;-77
2023/01/16 02:54:33;;;;;;;0.60;0.40;;;4.60;91.00;;;;;;5083521;28;20041;-76
2023/01/16 02:57:06;;;;;;;0.75;0.43;;;4.60;91.00;;;;;;5116861;28;20031;-76
2023/01/16 02:59:32;;;;;;;0.57;0.25;;;4.50;91.00;;;;;;5134651;28;20066;-76
2023/01/16 03:01:58;;;;;;;0.25;0.25;;;4.50;91.10;;;;;;5116271;28;20039;-76
2023/01/16 03:04:47;;;;;;;0.28;0.20;;;4.50;91.10;;;;;;5134332;27;20039;-77
2023/01/16 03:07:50;;;;;;;0.65;0.20;;;4.40;91.20;;;;;;5134243;28;20046;-76
2023/01/16 03:10:47;;;;;;;0.52;0.30;;;4.40;91.20;;;;;;5134130;28;20043;-76
2023/01/16 03:13:42;;;;;;;0.30;0.20;;;4.40;91.20;;;;;;5115819;28;20091;-76
2023/01/16 03:16:25;;;;;;;0.22;0.22;;;4.40;91.20;;;;;;5118870;28;20035;-76
2023/01/16 03:19:31;;;;;;;0.98;0.20;;;4.30;91.20;;;;;;5118315;28;20061;-76
2023/01/16 03:22:10;;;;;;;0.20;0.20;;;4.30;91.20;;;;;;5133223;28;20038;-77
2023/01/16 03:24:54;;;;;;;0.20;0.20;;;4.20;91.20;;;;;;5096269;28;20036;-77
2023/01/16 03:27:42;;;;;;;0.73;0.20;;;4.30;91.30;;;;;;5117335;28;20122;-76
2023/01/16 03:30:22;;;;;;;0.20;0.20;;;4.20;91.30;;;;;;5115381;28;20431;-76
2023/01/16 03:33:06;;;;;;;0.20;0.20;;;4.20;91.30;;;;;;5134224;28;20071;-76
2023/01/16 03:35:45;;;;;;;0.15;0.15;;;4.20;91.60;;;;;;5115549;28;20031;-76
2023/01/16 03:38:14;;;;;;;0.10;0.10;;;4.10;91.30;;;;;;5133652;28;20090;-76
2023/01/16 03:40:44;;;;;;;0.20;0.20;;;4.20;91.30;;;;;;5115261;28;20031;-76
2023/01/16 03:43:23;;;;;;;0.45;0.30;;;4.10;91.30;;;;;;5133668;28;20047;-76
2023/01/16 03:46:01;;;;;;;0.50;0.20;;;4.10;91.30;;;;;;5115836;28;20039;-76
2023/01/16 03:48:47;;;;;;;0.57;0.28;;;4.10;91.40;;;;;;5081717;28;20573;-76
2023/01/16 03:51:21;;;;;;;0.45;0.20;;;4.10;91.40;;;;;;5133742;28;20047;-76
2023/01/16 03:53:57;;;;;;;0.20;0.20;;;4.10;91.40;;;;;;5115372;28;20063;-76
2023/01/16 03:56:33;;;;;;;0.77;0.20;;;4.00;91.40;;;;;;5115207;28;20508;-76
2023/01/16 03:59:00;;;;;;;0.20;0.13;;;4.00;91.40;;;;;;5098500;28;20047;-76
2023/01/16 04:01:38;;;;;;;0.10;0.10;;;4.00;91.40;;;;;;5115258;28;20046;-76
2023/01/16 04:04:12;;;;;;;0.10;0.10;;;3.90;91.40;;;;;;5133857;28;20486;-76
2023/01/16 04:06:51;;;;;;;0.10;0.10;;;3.90;91.40;;;;;;5115436;28;20152;-76
2023/01/16 04:09:31;;;;;;;0.10;0.10;;;4.00;91.40;;;;;;5099052;28;20501;-76
2023/01/16 04:11:59;;;;;;;0.10;0.10;;;4.00;91.40;;;;;;5114977;28;20046;-76
2023/01/16 04:14:26;;;;;;;0.77;0.25;;;3.90;91.40;;;;;;5113348;28;20039;-78
2023/01/16 04:16:52;;;;;;;0.22;0.13;;;3.90;91.40;;;;;;5133354;28;20039;-76
2023/01/16 04:19:19;;;;;;;0.10;0.10;;;3.90;91.40;;;;;;5098110;28;20494;-76
2023/01/16 04:21:46;;;;;;;0.30;0.10;;;3.90;91.40;;;;;;5114439;28;20043;-76
2023/01/16 04:24:13;;;;;;;0.17;0.13;;;3.90;91.50;;;;;;5133835;28;20397;-76
2023/01/16 04:26:39;;;;;;;0.17;0.17;;;3.90;91.50;;;;;;5133465;28;20046;-76
2023/01/16 04:29:04;;;;;;;0.20;0.20;;;3.90;91.50;;;;;;5114815;28;20040;-76
2023/01/16 04:31:34;;;;;;;0.10;0.10;;;4.00;91.50;;;;;;5115462;28;20035;-76
2023/01/16 04:34:00;;;;;;;0.40;0.20;;;3.90;91.40;;;;;;5097875;28;20031;-76
2023/01/16 04:36:25;;;;;;;0.28;0.10;;;3.90;91.40;;;;;;5133688;28;20031;-76
2023/01/16 04:38:51;;;;;;;0.20;0.20;;;3.90;91.40;;;;;;5132985;28;20136;-76
2023/01/16 04:41:35;;;;;;;0.85;0.20;;;3.90;91.40;;;;;;5133553;28;20095;-76
2023/01/16 04:44:03;;;;;;;0.08;0.08;;;3.90;91.40;;;;;;5098923;28;20047;-76
2023/01/16 04:46:28;;;;;;;0.25;0.10;;;3.80;91.40;;;;;;5115105;28;20399;-76
2023/01/16 04:48:54;;;;;;;0.10;0.10;;;3.90;91.40;;;;;;5132943;28;20134;-76
2023/01/16 04:51:20;;;;;;;0.65;0.20;;;3.90;91.40;;;;;;5114607;28;20116;-76
2023/01/16 04:53:45;;;;;;;0.10;0.10;;;3.90;91.40;;;;;;5097986;28;20359;-76
2023/01/16 04:56:11;;;;;;;0.15;0.13;;;3.80;91.40;;;;;;5097463;28;20475;-76
2023/01/16 04:58:37;;;;;;;0.20;0.20;;;3.80;91.40;;;;;;5103738;28;20043;-76
2023/01/16 05:01:02;;;;;;;0.15;0.15;;;3.80;91.40;;;;;;5096476;28;20495;-76
2023/01/16 05:03:28;;;;;;;0.10;0.10;;;3.80;91.40;;;;;;5114467;28;20482;-76
2023/01/16 05:05:53;;;;;;;0.22;0.20;;;3.80;91.40;;;;;;5080657;28;20088;-76
2023/01/16 05:08:19;;;;;;;0.13;0.13;;;3.80;91.40;;;;;;5132979;28;20038;-76
2023/01/16 05:10:45;;;;;;;0.68;0.15;;;3.80;91.40;;;;;;5097565;28;20490;-76
2023/01/16 05:13:11;;;;;;;0.65;0.20;;;3.80;91.40;;;;;;5114975;28;20031;-76
2023/01/16 05:15:37;;;;;;;1.20;0.30;;;3.80;91.40;;;;;;5132936;28;20482;-76
2023/01/16 05:18:03;;;;;;;0.10;0.10;;;3.80;91.40;;;;;;5113415;28;20069;-76
2023/01/16 05:20:28;;;;;;;0.35;0.20;;;3.80;91.40;;;;;;5132651;28;20032;-76
2023/01/16 05:22:54;;;;;;;0.50;0.20;;;3.80;91.40;;;;;;5132999;28;20104;-76
2023/01/16 05:25:20;;;;;;;0.55;0.20;;;3.80;91.40;;;;;;5114753;28;20132;-76
2023/01/16 05:27:50;;;;;;;0.10;0.10;;;3.70;91.40;;;;;;5097437;28;20047;-76
2023/01/16 05:30:16;;;;;;;0.10;0.10;;;3.80;91.40;;;;;;5099202;28;20478;-76
2023/01/16 05:32:43;;;;;;;0.22;0.10;;;3.80;91.40;;;;;;5118143;28;20506;-76
2023/01/16 05:35:09;;;;;;;0.45;0.30;;;3.80;91.40;;;;;;5117869;28;20047;-76
2023/01/16 05:37:35;;;;;;;0.20;0.20;;;3.80;91.40;;;;;;5093387;28;20093;-76
2023/01/16 05:40:01;;;;;;;0.32;0.13;;;3.80;91.40;;;;;;5118092;28;20043;-76
2023/01/16 05:42:27;;;;;;;0.50;0.30;;;3.80;91.40;;;;;;5136479;28;20125;-76
2023/01/16 05:44:52;;;;;;;0.28;0.20;;;3.90;91.40;;;;;;5117533;28;20134;-76
2023/01/16 05:47:19;;;;;;;0.68;0.20;;;3.90;91.40;;;;;;5135978;28;20063;-76
2023/01/16 05:49:45;;;;;;;0.40;0.20;;;3.90;91.40;;;;;;5136242;28;20085;-76
2023/01/16 05:52:11;;;;;;;0.10;0.10;;;3.90;91.30;;;;;;5117610;28;20059;-76
2023/01/16 05:54:37;;;;;;;0.10;0.10;;;4.00;91.40;;;;;;5136105;28;20054;-76
2023/01/16 05:57:02;;;;;;;0.30;0.20;;;4.00;91.30;;;;;;5117421;28;20084;-76
2023/01/16 05:59:28;;;;;;;0.45;0.28;;;4.00;91.30;;;;;;5117768;28;20163;-76
2023/01/16 06:01:54;;;;;;;0.25;0.25;;;4.10;91.30;;;;;;5136174;28;20035;-76
2023/01/16 06:04:19;;;;;;;0.00;0.00;;;4.10;91.30;;;;;;5100371;28;20092;-76
2023/01/16 06:06:46;;;;;;;0.10;0.10;;;4.20;91.20;;;;;;5117932;28;20147;-76
2023/01/16 06:09:12;;;;;;;0.47;0.10;;;4.20;91.20;;;;;;5117293;28;20395;-77
2023/01/16 06:11:37;;;;;;;0.32;0.13;;;4.20;91.20;;;;;;5117805;28;20050;-76
2023/01/16 06:14:04;;;;;;;0.10;0.10;;;4.20;91.20;;;;;;5115568;28;20073;-76
2023/01/16 06:16:31;;;;;;;0.25;0.20;;;4.30;91.20;;;;;;5135611;28;20027;-76
2023/01/16 06:18:57;;;;;;;0.57;0.30;;;4.30;91.20;;;;;;5135605;28;20425;-76
2023/01/16 06:21:23;;;;;;;0.20;0.20;;;4.30;91.20;;;;;;5117143;28;20043;-76
2023/01/16 06:23:48;;;;;;;0.10;0.10;;;4.30;91.20;;;;;;5098332;28;20047;-76
2023/01/16 06:26:14;;;;;;;0.30;0.20;;;4.30;91.10;;;;;;5100049;28;20062;-76
2023/01/16 06:28:40;;;;;;;0.80;0.22;;;4.30;91.10;;;;;;5116970;28;20086;-76
2023/01/16 06:31:06;;;;;;;0.77;0.40;;;4.30;91.10;;;;;;5135456;28;20032;-76
2023/01/16 06:33:32;;;;;;;0.40;0.25;;;4.40;91.10;;;;;;5135242;28;20041;-76
2023/01/16 06:35:58;;;;;;;0.30;0.30;;;4.40;91.10;;;;;;5135084;28;20398;-76
2023/01/16 06:38:24;;;;;;;0.40;0.30;;;4.40;91.10;;;;;;5134522;27;20134;-76
2023/01/16 06:40:55;;;;;;;0.70;0.40;;;4.40;91.10;;;;;;5134983;28;20039;-76
2023/01/16 06:43:23;;;;;;;0.45;0.30;;;4.50;91.10;;;;;;5135545;28;20458;-76
2023/01/16 06:45:49;;;;;;;1.00;0.30;;;4.50;91.10;;;;;;5134944;28;20508;-75
2023/01/16 06:48:14;;;;;;;0.30;0.20;;;4.50;91.00;;;;;;5116446;28;20104;-75
2023/01/16 06:50:40;;;;;;;0.20;0.20;;;4.50;91.00;;;;;;5116724;28;20043;-76
2023/01/16 06:53:06;;;;;;;0.65;0.20;;;4.50;91.00;;;;;;5134994;28;20394;-76
2023/01/16 06:55:31;;;;;;;0.20;0.20;;;4.50;91.00;;;;;;5092703;28;20099;-76
2023/01/16 06:57:57;;;;;;;0.20;0.20;;;4.50;91.00;;;;;;5108820;28;20492;-76
2023/01/16 07:00:23;;;;;;;0.45;0.20;;;4.50;91.00;;;;;;5134772;28;20045;-76
2023/01/16 07:02:54;;;;;;;1.13;0.30;;;4.50;91.00;;;;;;5134925;28;20164;-76
2023/01/16 07:05:21;;;;;;;0.10;0.10;;;4.60;91.10;;;;;;5087117;28;20061;-76
2023/01/16 07:07:48;;;;;;;0.20;0.20;;;4.60;91.00;;;;;;5086355;28;20129;-76
2023/01/16 07:10:13;;;;;;;0.30;0.22;;;4.60;91.00;;;;;;5134797;28;20401;-75
2023/01/16 07:12:40;;;;;;;0.20;0.17;;;4.60;91.00;;;;;;5134968;28;20039;-74
2023/01/16 07:23:25;;;;;;;0.82;0.20;;;4.60;91.10;;;;;;5118234;28;20043;-76
2023/01/16 07:25:53;;;;;;;0.30;0.10;;;4.70;91.10;;;;;;5098868;28;20409;-76
2023/01/16 07:28:19;;;;;;;0.35;0.17;;;4.70;91.10;;;;;;5099326;28;20043;-74
2023/01/16 07:30:45;;;;;;;0.20;0.20;;;4.70;91.10;;;;;;5114697;28;20035;-74
2023/01/16 07:33:11;;;;;;;0.30;0.30;;;4.70;91.10;;;;;;5097190;28;20035;-74
2023/01/16 07:35:37;;;;;;;0.22;0.20;;;4.70;91.10;;;;;;5135343;28;20038;-74
2023/01/16 07:38:03;;;;;;;0.40;0.30;;;4.70;91.20;;;;;;5116152;28;20046;-75
2023/01/16 07:40:28;;;;;;;0.52;0.20;;;4.70;91.20;;;;;;5137192;28;20073;-76
2023/01/16 07:42:54;;;;;;;0.57;0.20;;;4.70;91.20;;;;;;5118654;28;20083;-77
2023/01/16 07:45:20;;;;;;;0.60;0.30;;;4.70;91.20;;;;;;5104810;28;20043;-76
2023/01/16 07:47:46;;;;;;;0.10;0.10;;;4.70;91.20;;;;;;5100464;28;20092;-76
2023/01/16 07:50:12;;;;;;;0.25;0.20;;;4.70;91.20;;;;;;5116440;28;20047;-77
2023/01/16 07:52:37;;;;;;;0.10;0.10;;;4.70;91.20;;;;;;5133865;28;20092;-77
2023/01/16 07:55:03;;;;;;;0.30;0.30;;;4.70;91.20;;;;;;5080679;28;20043;-76
2023/01/16 07:57:29;;;;;;;0.32;0.20;;;4.70;91.20;;;;;;5134255;28;20066;-77
2023/01/16 07:59:55;;;;;;;0.20;0.20;;;4.80;91.30;;;;;;5115850;28;20138;-77
2023/01/16 08:02:21;;;;;;;0.47;0.20;;;4.70;91.20;;;;;;5115365;28;20088;-77
2023/01/16 08:04:46;;;;;;;0.10;0.10;;;4.70;91.30;;;;;;5098539;28;20031;-77
2023/01/16 08:07:12;;;;;;;0.40;0.30;;;4.70;91.30;;;;;;5098287;28;20146;-76
2023/01/16 08:09:38;;;;;;;0.10;0.10;;;4.80;91.30;;;;;;5115282;28;20047;-78
2023/01/16 08:12:04;;;;;;;0.45;0.20;;;4.70;91.30;;;;;;5115227;28;20047;-78
2023/01/16 08:14:29;;;;;;;0.20;0.20;;;4.70;91.30;;;;;;5053483;28;20055;-78
2023/01/16 08:16:55;;;;;;;0.98;0.20;;;4.80;91.30;;;;;;5037533;28;20124;-77
2023/01/16 08:19:20;;;;;;;0.20;0.20;;;4.80;91.30;;;;;;5053722;28;20040;-77
2023/01/16 08:21:46;;;;;;;0.20;0.20;;;4.70;91.30;;;;;;5070594;28;20500;-76
2023/01/16 08:24:14;;;;;;;0.22;0.17;;;4.70;91.30;;;;;;5053628;28;20044;-76
2023/01/16 08:26:40;;;;;;;0.43;0.10;;;4.80;91.40;;;;;;5021023;28;20045;-76
2023/01/16 08:29:08;;;;;;;0.28;0.20;;;4.80;91.40;;;;;;5053600;28;20142;-77
2023/01/16 08:31:34;;;;;;;0.20;0.10;;;4.80;91.30;;;;;;5071831;28;20036;-77
2023/01/16 08:34:00;;;;;;;0.80;0.20;;;4.90;91.40;;;;;;5037015;28;20517;-77
2023/01/16 08:36:25;;;;;;;0.57;0.20;;;4.80;91.30;;;;;;5020643;28;20492;-77
2023/01/16 08:38:56;;;;;;;0.43;0.17;;;4.70;91.30;;;;;;5037034;28;20060;-78
2023/01/16 08:52:14;;;;;;;0.30;0.22;;;4.90;91.40;;;;;;5104252;28;20047;-77
2023/01/16 08:54:40;;;;;;;0.30;0.15;;;4.90;91.60;;;;;;5097728;28;20123;-77
2023/01/16 08:57:05;;;;;;;0.57;0.20;;;4.90;91.40;;;;;;5115572;28;20489;-77
2023/01/16 08:59:33;;;;;;;0.13;0.13;;;4.90;91.30;;;;;;5114906;28;20486;-77
2023/01/16 09:02:01;;;;;;;0.20;0.20;;;4.90;91.40;;;;;;5124289;28;20509;-77
2023/01/16 09:04:26;;;;;;;0.10;0.10;;;5.00;91.40;;;;;;5106841;28;20051;-78
2023/01/16 09:06:53;;;;;;;0.28;0.20;;;5.00;91.40;;;;;;5144756;28;20043;-76
2023/01/16 09:09:19;;;;;;;0.22;0.22;;;5.00;91.40;;;;;;5120789;28;20084;-76
2023/01/16 09:14:25;;;;;;;2.35;0.20;;;5.20;91.40;;;;;;5121490;28;20114;-76
2023/01/16 09:16:51;;;;;;;0.45;0.13;;;5.00;91.40;;;;;;5089630;28;20065;-76
2023/01/16 09:19:16;;;;;;;0.20;0.20;;;5.10;91.40;;;;;;5118742;28;20051;-76
2023/01/16 09:21:42;;;;;;;0.30;0.20;;;5.10;91.40;;;;;;5136876;28;20071;-76
2023/01/16 09:24:08;;;;;;;0.43;0.30;;;5.10;91.40;;;;;;5103041;28;20100;-75
2023/01/16 09:26:34;;;;;;;0.20;0.20;;;5.10;91.40;;;;;;5117983;28;20096;-75
2023/01/16 09:28:59;;;;;;;0.20;0.20;;;5.10;91.40;;;;;;5107854;28;20043;-76
2023/01/16 09:31:25;;;;;;;0.10;0.10;;;5.20;91.40;;;;;;5141639;28;20047;-76
2023/01/16 09:33:52;;;;;;;0.30;0.30;;;5.10;91.40;;;;;;5107078;28;20043;-76
2023/01/16 09:36:18;;;;;;;0.22;0.22;;;5.10;91.40;;;;;;5106884;28;20058;-75
2023/01/16 09:38:43;;;;;;;0.32;0.20;;;5.20;91.40;;;;;;5103688;28;20044;-75
2023/01/16 09:43:35;;;;;;;0.25;0.25;;;5.30;91.40;;;;;;5139112;28;20475;-75
2023/01/16 09:44:02;;;;;;;0.10;0.10;;;5.30;91.40;;;;;;5135641;28;20039;-76
2023/01/16 09:46:32;;;;;;;0.20;0.10;;;5.20;91.40;;;;;;5117679;28;20482;-75
2023/01/16 09:49:20;;;;;;;0.17;0.17;;;5.30;91.40;;;;;;5138448;28;20093;-75
2023/01/16 10:00:09;;;;;;;0.30;0.30;;;5.30;91.40;;;;;;5119489;28;20054;-77
2023/01/16 10:02:43;;;;;;;0.55;0.50;;;5.40;91.40;;;;;;5120327;28;20118;-79
2023/01/16 10:05:11;;;;;;;0.30;0.30;;;5.30;91.40;;;;;;5085465;28;20039;-78
2023/01/16 10:07:56;;;;;;;0.32;0.32;;;5.50;91.40;;;;;;5100580;28;20402;-79
2023/01/16 10:10:45;;;;;;;0.20;0.20;;;5.40;91.40;;;;;;5099536;28;20126;-79
2023/01/16 10:13:38;;;;;;;1.40;0.38;;;5.40;91.40;;;;;;5096974;28;20036;-77
2023/01/16 10:16:30;;;;;;;0.38;0.38;;;5.30;91.40;;;;;;5099129;28;20032;-77
2023/01/16 10:19:23;;;;;;;0.57;0.32;;;5.30;91.40;;;;;;5078175;28;20135;-77
2023/01/16 10:22:16;;;;;;;0.52;0.30;;;5.30;91.40;;;;;;5058795;28;20091;-77
2023/01/16 10:25:14;;;;;;;0.20;0.20;;;5.30;91.50;;;;;;5061393;28;20048;-77
2023/01/16 10:27:56;;;;;;;0.10;0.10;;;5.40;91.50;;;;;;5092146;28;20117;-77
2023/01/16 10:30:29;;;;;;;0.38;0.32;;;5.30;91.50;;;;;;5075184;28;20135;-76
2023/01/16 10:33:09;;;;;;;0.20;0.20;;;5.30;91.50;;;;;;5075273;28;20040;-76
2023/01/16 10:35:43;;;;;;;0.63;0.40;;;5.30;91.50;;;;;;5075205;28;20040;-76
2023/01/16 10:38:44;;;;;;;0.20;0.20;;;5.30;91.50;;;;;;5075634;28;20546;-76
2023/01/16 10:49:33;;;;;;;0.25;0.17;;;5.50;91.60;;;;;;5105876;28;20482;-77
2023/01/16 10:52:01;;;;;;;0.20;0.20;;;5.30;91.50;;;;;;5116613;28;20042;-77
2023/01/16 10:54:27;;;;;;;0.10;0.10;;;5.40;91.60;;;;;;5091581;28;20110;-77
2023/01/16 10:56:53;;;;;;;0.70;0.20;;;5.40;91.60;;;;;;5075496;28;20036;-78
2023/01/16 10:59:20;;;;;;;0.55;0.30;;;5.50;91.60;;;;;;5041589;28;20546;-76
2023/01/16 11:01:48;;;;;;;0.65;0.20;;;5.50;91.60;;;;;;5092023;28;20178;-77
2023/01/16 11:04:19;;;;;;;0.10;0.10;;;5.40;91.60;;;;;;5059074;28;20044;-76
2023/01/16 11:06:45;;;;;;;0.30;0.20;;;5.40;91.60;;;;;;5042492;28;20519;-75
2023/01/16 11:09:19;;;;;;;0.20;0.20;;;5.40;91.60;;;;;;5091595;28;20044;-75
2023/01/16 11:20:38;;;;;;;0.35;0.20;;;5.50;91.70;;;;;;5091603;28;20047;-75
2023/01/16 11:23:16;;;;;;;0.30;0.20;;;5.50;91.60;;;;;;5075241;28;20121;-75
2023/01/16 11:25:44;;;;;;;0.20;0.20;;;5.50;91.60;;;;;;5116254;28;20137;-75
2023/01/16 11:28:16;;;;;;;0.25;0.25;;;5.50;91.60;;;;;;5106323;28;20560;-75
2023/01/16 11:30:45;;;;;;;0.10;0.10;;;5.60;91.60;;;;;;5134505;28;20096;-75
2023/01/16 11:33:27;;;;;;;0.20;0.20;;;5.70;91.70;;;;;;5134112;28;20504;-75
2023/01/16 11:35:56;;;;;;;0.17;0.10;;;5.70;91.60;;;;;;5134685;28;20038;-75
2023/01/16 11:38:23;;;;;;;0.22;0.17;;;5.90;91.60;;;;;;5134097;28;20066;-75
2023/01/16 11:40:52;;;;;;;0.13;0.10;;;6.10;91.50;;;;;;5134232;28;20074;-75
2023/01/16 11:46:11;;;;;;;0.30;0.20;;;6.40;91.20;;;;;;5133969;28;20047;-75
2023/01/16 11:48:41;;;;;;;0.10;0.10;;;6.40;91.10;;;;;;5134143;28;20042;-75
2023/01/16 11:51:13;;;;;;;0.20;0.20;;;6.30;91.00;;;;;;5134174;28;20031;-76
2023/01/16 11:53:39;;;;;;;0.28;0.22;;;6.30;91.10;;;;;;5099550;28;20131;-75
2023/01/16 11:56:40;;;;;;;0.20;0.20;;;6.30;91.10;;;;;;5115504;28;20152;-75
2023/01/16 11:59:26;;;;;;;0.20;0.10;;;6.20;91.10;;;;;;5119385;28;20034;-77
2023/01/16 12:08:10;;;;;;;0.10;0.10;;;6.20;91.30;;;;;;5133710;28;20043;-76
2023/01/16 12:10:45;;;;;;;0.10;0.10;;;6.30;91.30;;;;;;5115175;28;20043;-74
2023/01/16 12:16:21;;;;;;;0.10;0.10;;;6.30;91.20;;;;;;5133855;28;20050;-75
2023/01/16 12:19:12;;;;;;;0.10;0.10;;;6.40;91.30;;;;;;5101923;28;20058;-76
2023/01/16 12:21:48;;;;;;;0.10;0.10;;;6.50;91.30;;;;;;5134430;28;20055;-74
2023/01/16 12:24:40;;;;;;;0.32;0.20;;;6.50;91.20;;;;;;5130853;28;20486;-76
2023/01/16 12:27:31;;;;;;;0.15;0.15;;;6.50;91.20;;;;;;5117204;28;20058;-75
2023/01/16 12:30:21;;;;;;;0.30;0.30;;;6.60;91.20;;;;;;5117153;28;20043;-76
2023/01/16 12:33:17;;;;;;;0.10;0.10;;;6.60;91.20;;;;;;5113924;28;20080;-76
2023/01/16 12:36:00;;;;;;;0.10;0.10;;;6.60;91.20;;;;;;5113109;28;20045;-74
2023/01/16 12:38:34;;;;;;;0.20;0.20;;;6.60;91.20;;;;;;5099148;28;20039;-77
2023/01/16 12:44:17;;;;;;;0.10;0.10;;;6.60;91.20;;;;;;5101539;28;20123;-76
2023/01/16 12:47:03;;;;;;;0.17;0.17;;;6.70;91.20;;;;;;5115430;28;20067;-77
2023/01/16 12:49:52;;;;;;;0.10;0.10;;;6.70;91.20;;;;;;5134816;28;20032;-74
2023/01/16 12:52:53;;;;;;;0.10;0.10;;;6.70;91.20;;;;;;5132415;28;20046;-77
2023/01/16 12:55:41;;;;;;;0.22;0.22;;;6.70;91.20;;;;;;5120079;28;20040;-75
2023/01/16 12:58:22;;;;;;;0.15;0.15;;;6.70;91.20;;;;;;5133094;28;20039;-73
2023/01/16 13:00:58;;;;;;;0.10;0.10;;;6.80;91.20;;;;;;5132996;28;20053;-74
2023/01/16 13:03:35;;;;;;;0.20;0.17;;;6.90;91.30;;;;;;5114460;28;20108;-74
2023/01/16 13:06:03;;;;;;;0.10;0.10;;;6.90;91.20;;;;;;5114864;28;20035;-76
2023/01/16 13:08:40;;;;;;;0.25;0.15;;;6.90;91.10;;;;;;5116220;28;20039;-76
2023/01/16 13:14:05;;;;;;;0.10;0.10;;;7.00;91.00;;;;;;5131655;28;20043;-78
2023/01/16 13:16:37;;;;;;;0.10;0.10;;;6.90;91.00;;;;;;5117051;28;20059;-76
2023/01/16 13:19:21;;;;;;;0.10;0.10;;;7.00;91.10;;;;;;5115201;28;20130;-75
2023/01/16 13:22:14;;;;;;;0.30;0.20;;;6.90;91.10;;;;;;5111426;28;20074;-75
2023/01/16 13:24:49;;;;;;;0.10;0.10;;;6.90;91.20;;;;;;5131292;28;20030;-76
2023/01/16 13:27:21;;;;;;;0.10;0.10;;;6.80;91.20;;;;;;5113124;28;20130;-76
2023/01/16 13:29:52;;;;;;;0.15;0.15;;;6.70;91.20;;;;;;5115088;28;20087;-76
2023/01/16 13:32:44;;;;;;;0.43;0.10;;;6.80;91.20;;;;;;5113053;28;20390;-76
2023/01/16 13:35:29;;;;;;;0.20;0.20;;;6.70;91.20;;;;;;5117930;28;20532;-76
2023/01/16 13:38:23;;;;;;;0.30;0.20;;;6.60;91.20;;;;;;5113965;28;20047;-76
2023/01/16 13:41:15;;;;;;;0.20;0.20;;;6.70;91.30;;;;;;5132731;28;20070;-76
2023/01/16 13:46:32;;;;;;;0.10;0.10;;;6.60;91.30;;;;;;5114649;28;20537;-74
2023/01/16 13:49:02;;;;;;;0.10;0.10;;;6.60;91.30;;;;;;5115881;28;20043;-74
2023/01/16 13:51:28;;;;;;;0.13;0.13;;;6.60;91.30;;;;;;5136209;28;20073;-74
2023/01/16 13:53:59;;;;;;;0.10;0.10;;;6.70;91.30;;;;;;5135895;28;20031;-74
2023/01/16 13:56:26;;;;;;;0.10;0.10;;;6.70;91.30;;;;;;5135858;28;20501;-74
2023/01/16 13:59:27;;;;;;;0.10;0.10;;;6.60;91.30;;;;;;5117551;28;20074;-73
2023/01/16 14:01:56;;;;;;;0.13;0.13;;;6.50;91.30;;;;;;5135925;28;20039;-74
2023/01/16 14:04:30;;;;;;;0.20;0.20;;;6.50;91.30;;;;;;5095774;28;20039;-75
2023/01/16 14:10:11;;;;;;;0.10;0.10;;;6.50;91.30;;;;;;5119373;28;20091;-74
2023/01/16 14:13:11;;;;;;;0.43;0.20;;;6.40;91.40;;;;;;5134198;28;20137;-74
2023/01/16 14:18:42;;;;;;;0.10;0.10;;;6.40;91.50;;;;;;5135624;28;20075;-74
2023/01/16 14:21:17;;;;;;;0.20;0.20;;;6.30;91.40;;;;;;5117210;28;20135;-75
2023/01/16 14:26:53;;;;;;;0.10;0.10;;;6.20;91.50;;;;;;5135355;28;20043;-75
2023/01/16 14:29:25;;;;;;;0.20;0.20;;;6.20;91.50;;;;;;5135260;28;20042;-74
2023/01/16 14:31:59;;;;;;;0.43;0.30;;;6.20;91.60;;;;;;5135472;28;20046;-74
2023/01/16 14:34:36;;;;;;;0.20;0.20;;;6.20;91.60;;;;;;5132812;28;20043;-75
2023/01/16 14:37:05;;;;;;;0.10;0.10;;;6.10;91.60;;;;;;5116176;28;20119;-75
2023/01/16 14:39:37;;;;;;;0.30;0.20;;;6.10;91.60;;;;;;5135275;28;20127;-75
2023/01/16 14:56:57;;;;;;;0.10;0.10;;;6.00;91.70;;;;;;5118469;28;20047;-74
2023/01/16 14:59:28;;;;;;;0.15;0.15;;;6.00;91.70;;;;;;5116455;28;20049;-75